createdAt,value
2022-11-05T00:01:53.083Z,6.60
2022-11-05T00:04:38.388Z,6.60
2022-11-05T00:07:31.535Z,6.60
2022-11-05T00:10:03.972Z,6.70
2022-11-05T00:12:49.306Z,6.60
2022-11-05T00:15:34.467Z,6.70
2022-11-05T00:18:01.050Z,6.70
2022-11-05T00:20:27.622Z,6.70
2022-11-05T00:23:20.229Z,6.80
2022-11-05T00:26:13.051Z,6.70
2022-11-05T00:28:44.633Z,6.90
2022-11-05T00:31:12.667Z,6.90
2022-11-05T00:33:40.037Z,6.90
2022-11-05T00:36:07.496Z,6.90
2022-11-05T00:38:34.605Z,7.00
2022-11-05T00:41:01.564Z,6.90
2022-11-05T00:43:46.705Z,6.90
2022-11-05T00:46:13.310Z,6.90
2022-11-05T00:48:58.438Z,7.00
2022-11-05T00:51:25.156Z,7.00
2022-11-05T00:53:51.721Z,7.00
2022-11-05T00:56:18.438Z,6.90
2022-11-05T00:58:45.477Z,6.90
2022-11-05T01:01:12.160Z,7.00
2022-11-05T01:03:39.638Z,7.00
2022-11-05T01:06:08.797Z,6.90
2022-11-05T01:08:35.461Z,6.90
2022-11-05T01:11:07.409Z,6.90
2022-11-05T01:13:34.003Z,6.80
2022-11-05T01:16:04.555Z,6.80
2022-11-05T01:18:31.283Z,6.80
2022-11-05T01:20:58.051Z,6.80
2022-11-05T01:23:24.801Z,6.80
2022-11-05T01:25:51.482Z,6.80
2022-11-05T01:28:18.119Z,6.80
2022-11-05T01:30:44.730Z,6.80
2022-11-05T01:33:11.601Z,6.80
2022-11-05T01:35:39.091Z,6.70
2022-11-05T01:38:05.723Z,8.40
2022-11-05T01:40:32.413Z,6.70
2022-11-05T01:42:58.980Z,6.70
2022-11-05T01:45:27.069Z,6.80
2022-11-05T01:47:53.723Z,6.80
2022-11-05T01:50:32.316Z,6.80
2022-11-05T01:53:02.588Z,6.80
2022-11-05T01:55:31.016Z,6.80
2022-11-05T01:57:58.773Z,6.80
2022-11-05T02:00:25.492Z,6.80
2022-11-05T02:02:52.307Z,6.70
2022-11-05T02:05:19.007Z,6.80
2022-11-05T02:07:46.339Z,6.80
2022-11-05T02:10:13.957Z,6.80
2022-11-05T02:12:42.617Z,6.80
2022-11-05T02:15:13.387Z,8.40
2022-11-05T02:17:55.433Z,6.80
2022-11-05T02:20:25.015Z,6.80
2022-11-05T02:23:05.614Z,6.70
2022-11-05T02:25:51.062Z,6.70
2022-11-05T02:28:17.608Z,6.70
2022-11-05T02:30:55.133Z,6.60
2022-11-05T02:33:21.695Z,6.60
2022-11-05T02:36:06.888Z,6.60
2022-11-05T02:38:53.161Z,6.50
2022-11-05T02:41:25.561Z,6.50
2022-11-05T02:44:24.689Z,6.50
2022-11-05T02:47:07.622Z,6.40
2022-11-05T02:49:34.181Z,6.30
2022-11-05T02:52:09.622Z,6.30
2022-11-05T02:54:43.677Z,6.30
2022-11-05T02:57:10.369Z,6.30
2022-11-05T02:59:37.099Z,6.30
2022-11-05T03:02:03.895Z,6.20
2022-11-05T03:04:32.226Z,6.20
2022-11-05T03:07:14.061Z,6.20
2022-11-05T03:09:49.772Z,6.20
2022-11-05T03:12:19.574Z,6.20
2022-11-05T03:15:12.549Z,6.30
2022-11-05T03:17:39.126Z,6.30
2022-11-05T03:20:08.677Z,6.40
2022-11-05T03:22:38.613Z,6.50
2022-11-05T03:25:08.182Z,6.50
2022-11-05T03:27:37.194Z,6.60
2022-11-05T03:30:08.407Z,6.70
2022-11-05T03:32:37.237Z,6.70
2022-11-05T03:35:22.837Z,6.90
2022-11-05T03:37:52.230Z,6.90
2022-11-05T03:40:19.742Z,7.20
2022-11-05T03:42:48.972Z,7.00
2022-11-05T03:45:18.310Z,7.10
2022-11-05T03:47:47.482Z,7.10
2022-11-05T03:50:19.919Z,7.20
2022-11-05T03:52:54.089Z,8.90
2022-11-05T03:55:26.125Z,7.20
2022-11-05T03:57:54.617Z,7.30
2022-11-05T04:00:21.769Z,7.30
2022-11-05T04:02:48.441Z,7.30
2022-11-05T04:05:15.122Z,8.20
2022-11-05T04:08:01.145Z,7.20
2022-11-05T04:10:46.297Z,7.30
2022-11-05T04:13:24.770Z,7.70
2022-11-05T04:16:10.642Z,7.40
2022-11-05T04:18:37.503Z,7.40
2022-11-05T04:21:22.660Z,7.40
2022-11-05T04:24:08.238Z,7.50
2022-11-05T04:26:39.227Z,7.50
2022-11-05T04:29:24.566Z,7.50
2022-11-05T04:31:51.258Z,7.50
2022-11-05T04:34:22.028Z,7.50
2022-11-05T04:36:49.789Z,7.60
2022-11-05T04:39:17.250Z,7.60
2022-11-05T04:41:44.225Z,7.60
2022-11-05T04:44:10.802Z,7.60
2022-11-05T04:46:37.448Z,7.70
2022-11-05T04:49:04.071Z,7.70
2022-11-05T04:51:30.794Z,7.70
2022-11-05T04:53:57.506Z,7.70
2022-11-05T04:56:25.043Z,7.70
2022-11-05T04:58:51.770Z,8.20
2022-11-05T05:01:19.855Z,9.10
2022-11-05T05:03:47.127Z,7.80
2022-11-05T05:06:13.711Z,7.90
2022-11-05T05:08:40.452Z,7.90
2022-11-05T05:11:08.374Z,7.90
2022-11-05T05:13:35.542Z,7.90
2022-11-05T05:16:06.924Z,7.90
2022-11-05T05:18:33.622Z,7.90
2022-11-05T05:21:18.952Z,8.00
2022-11-05T05:23:46.692Z,8.00
2022-11-05T05:26:13.274Z,8.00
2022-11-05T05:28:39.973Z,8.00
2022-11-05T05:31:06.709Z,8.00
2022-11-05T05:33:33.306Z,8.00
2022-11-05T05:36:00.203Z,8.00
2022-11-05T05:38:26.804Z,8.00
2022-11-05T05:40:57.249Z,9.30
2022-11-05T05:43:23.973Z,8.00
2022-11-05T05:45:50.538Z,8.10
2022-11-05T05:48:17.109Z,8.10
2022-11-05T05:50:43.668Z,8.10
2022-11-05T05:53:10.534Z,10.30
2022-11-05T05:55:37.283Z,8.10
2022-11-05T05:58:03.972Z,8.10
2022-11-05T06:00:30.533Z,8.20
2022-11-05T06:02:57.215Z,8.20
2022-11-05T06:05:23.830Z,9.30
2022-11-05T06:07:57.355Z,8.20
2022-11-05T06:10:24.706Z,8.20
2022-11-05T06:12:51.629Z,8.20
2022-11-05T06:15:18.195Z,8.20
2022-11-05T06:17:45.036Z,8.20
2022-11-05T06:20:12.653Z,8.20
2022-11-05T06:22:39.351Z,8.20
2022-11-05T06:25:06.421Z,8.20
2022-11-05T06:27:33.070Z,8.20
2022-11-05T06:29:59.656Z,8.20
2022-11-05T06:32:26.350Z,8.10
2022-11-05T06:34:52.905Z,8.10
2022-11-05T06:37:19.478Z,8.10
2022-11-05T06:39:46.036Z,8.20
2022-11-05T06:42:18.386Z,8.20
2022-11-05T06:44:45.734Z,8.20
2022-11-05T06:47:12.376Z,8.30
2022-11-05T06:49:38.961Z,8.30
2022-11-05T06:52:05.603Z,8.40
2022-11-05T06:54:32.170Z,8.50
2022-11-05T06:56:58.737Z,8.50
2022-11-05T06:59:25.446Z,8.50
2022-11-05T07:01:52.127Z,8.60
2022-11-05T07:04:18.722Z,8.60
2022-11-05T07:06:45.303Z,8.60
2022-11-05T07:09:11.886Z,8.60
2022-11-05T07:11:38.475Z,8.60
2022-11-05T07:14:05.045Z,8.60
2022-11-05T07:16:31.764Z,9.30
2022-11-05T07:18:58.401Z,8.70
2022-11-05T07:21:25.045Z,8.70
2022-11-05T07:23:51.788Z,8.70
2022-11-05T07:26:18.464Z,8.80
2022-11-05T07:28:45.392Z,8.80
2022-11-05T07:31:11.962Z,8.90
2022-11-05T07:33:38.551Z,9.00
2022-11-05T07:36:05.335Z,9.30
2022-11-05T07:38:31.911Z,9.10
2022-11-05T07:40:59.418Z,9.20
2022-11-05T07:43:26.014Z,11.50
2022-11-05T07:45:52.586Z,9.30
2022-11-05T07:48:19.176Z,9.30
2022-11-05T07:50:45.808Z,9.40
2022-11-05T07:53:14.098Z,9.40
2022-11-05T07:55:41.370Z,9.40
2022-11-05T07:58:07.996Z,9.90
2022-11-05T08:00:34.699Z,9.60
2022-11-05T08:03:07.588Z,9.60
2022-11-05T08:05:36.781Z,9.50
2022-11-05T08:08:03.773Z,10.30
2022-11-05T08:10:30.358Z,9.40
2022-11-05T08:12:56.946Z,9.40
2022-11-05T08:15:23.838Z,9.40
2022-11-05T08:17:50.576Z,10.10
2022-11-05T08:20:17.278Z,11.20
2022-11-05T08:22:44.545Z,10.80
2022-11-05T08:25:12.031Z,9.60
2022-11-05T08:27:39.239Z,9.70
2022-11-05T08:30:07.177Z,9.80
2022-11-05T08:32:34.101Z,9.00
2022-11-05T08:35:00.686Z,10.00
2022-11-05T08:37:27.354Z,11.70
2022-11-05T08:39:53.927Z,10.20
2022-11-05T08:42:20.595Z,10.30
2022-11-05T08:44:47.169Z,11.10
2022-11-05T08:47:13.744Z,10.50
2022-11-05T08:49:40.306Z,11.60
2022-11-05T08:52:06.911Z,10.30
2022-11-05T08:54:33.587Z,10.20
2022-11-05T08:57:00.238Z,10.20
2022-11-05T08:59:29.178Z,10.10
2022-11-05T09:01:55.919Z,9.90
2022-11-05T09:04:22.642Z,9.80
2022-11-05T09:06:49.287Z,9.70
2022-11-05T09:09:15.867Z,9.50
2022-11-05T09:12:10.501Z,9.60
2022-11-05T09:14:30.107Z,9.60
2022-11-05T09:16:56.830Z,9.70
2022-11-05T09:19:23.478Z,9.70
2022-11-05T09:21:50.091Z,9.70
2022-11-05T09:24:16.807Z,10.20
2022-11-05T09:26:43.415Z,9.40
2022-11-05T09:29:14.276Z,9.10
2022-11-05T09:31:41.208Z,9.00
2022-11-05T09:34:07.797Z,8.90
2022-11-05T09:36:34.417Z,8.90
2022-11-05T09:39:01.067Z,9.00
2022-11-05T09:41:32.587Z,9.20
2022-11-05T09:44:09.707Z,9.10
2022-11-05T09:46:42.471Z,9.30
2022-11-05T09:49:15.136Z,9.40
2022-11-05T09:51:41.779Z,9.20
2022-11-05T09:54:10.711Z,9.40
2022-11-05T09:56:40.301Z,9.30
2022-11-05T09:59:16.974Z,9.30
2022-11-05T10:01:45.051Z,9.20
2022-11-05T10:04:18.015Z,9.10
2022-11-05T10:06:47.686Z,9.10
2022-11-05T10:09:22.539Z,9.00
2022-11-05T10:11:55.443Z,9.70
2022-11-05T10:14:28.480Z,8.80
2022-11-05T10:17:04.425Z,8.80
2022-11-05T10:19:36.388Z,8.80
2022-11-05T10:22:10.739Z,8.90
2022-11-05T10:24:38.692Z,9.00
2022-11-05T10:27:05.422Z,9.30
2022-11-05T10:29:33.641Z,9.20
2022-11-05T10:32:01.188Z,9.30
2022-11-05T10:34:30.494Z,9.70
2022-11-05T10:36:57.202Z,10.30
2022-11-05T10:39:24.687Z,9.40
2022-11-05T10:42:10.182Z,9.40
2022-11-05T10:44:43.916Z,9.60
2022-11-05T10:47:16.666Z,9.60
2022-11-05T10:49:48.097Z,9.60
2022-11-05T10:52:22.358Z,9.40
2022-11-05T10:54:49.832Z,9.60
2022-11-05T10:57:28.588Z,9.60
2022-11-05T11:00:15.274Z,10.00
2022-11-05T11:02:48.029Z,10.30
2022-11-05T11:05:20.728Z,10.90
2022-11-05T11:07:59.813Z,11.10
2022-11-05T11:10:26.876Z,11.50
2022-11-05T11:12:53.830Z,11.80
2022-11-05T11:15:21.369Z,12.20
2022-11-05T11:17:47.989Z,12.20
2022-11-05T11:20:19.535Z,11.90
2022-11-05T11:22:58.512Z,12.00
2022-11-05T11:25:26.216Z,11.70
2022-11-05T11:27:53.207Z,11.60
2022-11-05T11:30:20.517Z,11.60
2022-11-05T11:32:48.625Z,12.10
2022-11-05T11:35:22.400Z,12.30
2022-11-05T11:37:51.896Z,12.20
2022-11-05T11:40:29.418Z,12.00
2022-11-05T11:42:57.816Z,11.60
2022-11-05T11:45:29.735Z,11.10
2022-11-05T11:47:57.303Z,10.80
2022-11-05T11:50:41.193Z,10.70
2022-11-05T11:53:20.063Z,10.50
2022-11-05T11:55:56.697Z,10.50
2022-11-05T11:58:25.217Z,10.40
2022-11-05T12:01:10.904Z,10.30
2022-11-05T12:03:42.726Z,10.30
2022-11-05T12:06:24.516Z,10.30
2022-11-05T12:09:01.985Z,10.30
2022-11-05T12:11:38.118Z,11.20
2022-11-05T12:14:10.603Z,10.20
2022-11-05T12:16:51.553Z,10.20
2022-11-05T12:19:18.121Z,10.40
2022-11-05T12:21:54.334Z,11.70
2022-11-05T12:24:21.814Z,10.90
2022-11-05T12:27:03.763Z,11.90
2022-11-05T12:29:45.363Z,11.50
2022-11-05T12:32:24.331Z,11.50
2022-11-05T12:34:54.874Z,11.20
2022-11-05T12:37:35.274Z,10.90
2022-11-05T12:40:27.996Z,10.50
2022-11-05T12:42:57.575Z,10.30
2022-11-05T12:45:30.245Z,10.00
2022-11-05T12:47:59.870Z,9.80
2022-11-05T12:50:36.242Z,9.80
2022-11-05T12:53:18.151Z,9.70
2022-11-05T12:55:48.750Z,9.70
2022-11-05T12:58:32.870Z,9.70
2022-11-05T13:01:02.633Z,9.80
2022-11-05T13:03:47.761Z,10.20
2022-11-05T13:06:16.365Z,9.90
2022-11-05T13:08:58.134Z,9.90
2022-11-05T13:11:43.782Z,9.80
2022-11-05T13:14:19.681Z,9.90
2022-11-05T13:16:49.337Z,9.90
2022-11-05T13:19:18.850Z,9.90
2022-11-05T13:21:48.127Z,10.20
2022-11-05T13:24:14.696Z,10.00
2022-11-05T13:26:47.643Z,10.00
2022-11-05T13:29:18.110Z,10.00
2022-11-05T13:31:48.727Z,11.00
2022-11-05T13:34:15.316Z,10.00
2022-11-05T13:37:08.432Z,10.00
2022-11-05T13:39:37.634Z,10.10
2022-11-05T13:42:30.446Z,10.20
2022-11-05T13:45:15.851Z,10.20
2022-11-05T13:47:51.298Z,10.30
2022-11-05T13:50:17.890Z,10.30
2022-11-05T13:52:50.343Z,10.20
2022-11-05T13:55:26.124Z,10.20
2022-11-05T13:58:07.996Z,10.20
2022-11-05T14:00:42.855Z,10.20
2022-11-05T14:03:17.991Z,10.10
2022-11-05T14:05:49.595Z,10.00
2022-11-05T14:08:21.189Z,10.00
2022-11-05T14:10:56.879Z,9.90
2022-11-05T14:13:25.276Z,9.80
2022-11-05T14:16:09.056Z,9.70
2022-11-05T14:18:37.777Z,9.60
2022-11-05T14:21:05.335Z,9.90
2022-11-05T14:23:39.295Z,9.70
2022-11-05T14:26:17.524Z,9.70
2022-11-05T14:28:45.549Z,9.60
2022-11-05T14:31:18.170Z,9.70
2022-11-05T14:33:55.724Z,9.60
2022-11-05T14:36:22.319Z,9.70
2022-11-05T14:38:52.856Z,9.90
2022-11-05T14:41:19.962Z,9.80
2022-11-05T14:43:48.316Z,9.90
2022-11-05T14:46:15.932Z,9.80
2022-11-05T14:49:05.179Z,11.20
2022-11-05T14:51:37.401Z,9.50
2022-11-05T14:54:13.448Z,9.70
2022-11-05T14:56:44.947Z,9.40
2022-11-05T14:59:23.458Z,9.40
2022-11-05T15:01:50.150Z,9.40
2022-11-05T15:04:18.563Z,9.90
2022-11-05T15:07:03.377Z,9.40
2022-11-05T15:09:48.722Z,9.50
2022-11-05T15:12:34.164Z,9.40
2022-11-05T15:15:21.521Z,9.50
2022-11-05T15:17:53.068Z,9.50
2022-11-05T15:20:24.567Z,9.50
2022-11-05T15:22:54.553Z,9.30
2022-11-05T15:25:27.338Z,9.30
2022-11-05T15:27:53.947Z,11.20
2022-11-05T15:30:22.140Z,9.40
2022-11-05T15:32:49.067Z,9.40
2022-11-05T15:35:20.405Z,10.50
2022-11-05T15:37:52.564Z,9.30
2022-11-05T15:40:22.881Z,9.30
2022-11-05T15:43:08.366Z,9.30
2022-11-05T15:45:35.098Z,9.40
2022-11-05T15:48:01.709Z,10.00
2022-11-05T15:50:28.350Z,9.30
2022-11-05T15:52:56.682Z,9.20
2022-11-05T15:55:28.043Z,10.50
2022-11-05T15:57:58.613Z,9.20
2022-11-05T16:00:27.010Z,9.20
2022-11-05T16:02:55.864Z,9.10
2022-11-05T16:05:23.427Z,9.10
2022-11-05T16:07:50.176Z,11.80
2022-11-05T16:10:18.942Z,9.10
2022-11-05T16:12:45.676Z,9.10
2022-11-05T16:15:12.251Z,9.20
2022-11-05T16:17:46.115Z,9.20
2022-11-05T16:20:20.603Z,9.20
2022-11-05T16:22:48.312Z,9.20
2022-11-05T16:25:33.472Z,9.20
2022-11-05T16:28:00.467Z,9.20
2022-11-05T16:30:27.550Z,10.30
2022-11-05T16:32:54.571Z,9.20
2022-11-05T16:35:24.822Z,9.20
2022-11-05T16:37:52.629Z,9.10
2022-11-05T16:40:20.759Z,8.90
2022-11-05T16:42:48.510Z,8.90
2022-11-05T16:45:16.126Z,8.90
2022-11-05T16:47:43.518Z,8.90
2022-11-05T16:50:14.251Z,8.90
2022-11-05T16:52:40.987Z,8.90
2022-11-05T16:55:08.359Z,8.90
2022-11-05T16:57:34.943Z,8.80
2022-11-05T17:00:01.592Z,8.80
2022-11-05T17:02:28.530Z,8.80
2022-11-05T17:04:55.220Z,11.20
2022-11-05T17:07:21.861Z,11.10
2022-11-05T17:09:48.452Z,8.80
2022-11-05T17:12:15.296Z,8.70
2022-11-05T17:14:41.953Z,8.70
2022-11-05T17:17:08.576Z,11.60
2022-11-05T17:19:35.182Z,8.70
2022-11-05T17:22:01.850Z,9.20
2022-11-05T17:24:28.511Z,8.60
2022-11-05T17:26:55.153Z,8.70
2022-11-05T17:29:21.895Z,8.70
2022-11-05T17:31:48.976Z,8.70
2022-11-05T17:34:15.658Z,8.70
2022-11-05T17:36:42.229Z,8.70
2022-11-05T17:39:08.899Z,8.70
2022-11-05T17:41:35.631Z,8.70
2022-11-05T17:44:02.273Z,8.90
2022-11-05T17:46:28.852Z,8.80
2022-11-05T17:48:55.531Z,8.80
2022-11-05T17:51:22.179Z,8.80
2022-11-05T17:53:49.376Z,8.70
2022-11-05T17:56:26.165Z,8.70
2022-11-05T17:58:55.808Z,9.60
2022-11-05T18:01:29.948Z,8.60
2022-11-05T18:03:56.724Z,8.50
2022-11-05T18:06:23.483Z,8.50
2022-11-05T18:08:50.223Z,8.90
2022-11-05T18:11:17.105Z,10.00
2022-11-05T18:13:43.819Z,8.40
2022-11-05T18:16:10.567Z,10.40
2022-11-05T18:18:37.264Z,11.40
2022-11-05T18:21:04.068Z,8.50
2022-11-05T18:23:30.687Z,8.40
2022-11-05T18:25:57.384Z,8.50
2022-11-05T18:28:24.023Z,10.80
2022-11-05T18:30:57.833Z,8.50
2022-11-05T18:33:24.636Z,8.60
2022-11-05T18:35:51.330Z,8.90
2022-11-05T18:38:17.933Z,8.60
2022-11-05T18:40:44.580Z,8.60
2022-11-05T18:43:11.890Z,9.50
2022-11-05T18:45:38.803Z,8.50
2022-11-05T18:48:05.534Z,8.50
2022-11-05T18:50:32.287Z,8.50
2022-11-05T18:52:59.018Z,8.50
2022-11-05T18:55:25.653Z,10.90
2022-11-05T18:57:52.234Z,8.50
2022-11-05T19:00:18.921Z,8.50
2022-11-05T19:02:45.580Z,8.40
2022-11-05T19:05:28.450Z,8.30
2022-11-05T19:07:55.861Z,8.40
2022-11-05T19:10:22.444Z,8.20
2022-11-05T19:12:49.306Z,8.30
2022-11-05T19:15:16.129Z,8.30
2022-11-05T19:17:42.972Z,8.40
2022-11-05T19:20:09.796Z,8.30
2022-11-05T19:22:36.407Z,8.40
2022-11-05T19:25:03.282Z,8.40
2022-11-05T19:27:29.916Z,8.40
2022-11-05T19:29:56.609Z,8.40
2022-11-05T19:32:23.990Z,8.40
2022-11-05T19:34:51.328Z,8.30
2022-11-05T19:37:21.164Z,10.30
2022-11-05T19:39:48.273Z,8.20
2022-11-05T19:42:15.435Z,8.10
2022-11-05T19:44:43.665Z,8.10
2022-11-05T19:47:10.579Z,8.10
2022-11-05T19:49:37.156Z,8.10
2022-11-05T19:52:03.787Z,8.00
2022-11-05T19:54:30.350Z,8.00
2022-11-05T19:56:57.345Z,7.40
2022-11-05T19:59:24.111Z,8.00
2022-11-05T20:01:50.989Z,8.00
2022-11-05T20:04:17.618Z,7.90
2022-11-05T20:06:44.540Z,7.90
2022-11-05T20:09:27.449Z,8.00
2022-11-05T20:11:56.111Z,8.00
2022-11-05T20:14:23.488Z,8.00
2022-11-05T20:16:50.157Z,8.10
2022-11-05T20:19:18.767Z,8.00
2022-11-05T20:21:45.571Z,8.10
2022-11-05T20:24:15.245Z,8.10
2022-11-05T20:26:45.297Z,8.00
2022-11-05T20:29:12.982Z,8.00
2022-11-05T20:31:39.597Z,8.00
2022-11-05T20:34:06.237Z,7.90
2022-11-05T20:36:33.212Z,7.90
2022-11-05T20:38:59.879Z,7.90
2022-11-05T20:41:26.701Z,7.90
2022-11-05T20:43:53.481Z,7.80
2022-11-05T20:46:20.948Z,7.80
2022-11-05T20:48:48.147Z,7.70
2022-11-05T20:51:16.058Z,7.70
2022-11-05T20:53:43.321Z,7.60
2022-11-05T20:56:30.165Z,7.50
2022-11-05T20:59:00.243Z,7.40
2022-11-05T21:01:28.083Z,7.20
2022-11-05T21:03:54.907Z,7.70
2022-11-05T21:06:21.824Z,7.10
2022-11-05T21:08:49.994Z,7.10
2022-11-05T21:11:17.278Z,7.20
2022-11-05T21:13:43.855Z,7.20
2022-11-05T21:16:15.412Z,7.30
2022-11-05T21:18:44.354Z,7.30
2022-11-05T21:21:12.878Z,7.30
2022-11-05T21:23:39.447Z,7.30
2022-11-05T21:26:07.117Z,7.30
2022-11-05T21:28:34.414Z,7.20
2022-11-05T21:31:02.134Z,7.20
2022-11-05T21:33:28.876Z,7.10
2022-11-05T21:35:55.513Z,7.10
2022-11-05T21:38:22.251Z,7.00
2022-11-05T21:40:48.942Z,7.00
2022-11-05T21:43:15.672Z,6.90
2022-11-05T21:45:43.973Z,6.90
2022-11-05T21:48:11.311Z,6.70
2022-11-05T21:50:57.173Z,6.60
2022-11-05T21:53:42.757Z,7.50
2022-11-05T21:56:36.427Z,6.40
2022-11-05T21:59:21.882Z,6.40
2022-11-05T22:01:48.605Z,6.30
2022-11-05T22:04:15.306Z,6.30
2022-11-05T22:06:41.958Z,6.30
2022-11-05T22:09:08.605Z,6.20
2022-11-05T22:11:38.317Z,6.90
2022-11-05T22:14:04.912Z,6.20
2022-11-05T22:16:31.529Z,6.20
2022-11-05T22:18:58.842Z,6.20
2022-11-05T22:21:25.466Z,6.20
2022-11-05T22:23:52.697Z,6.30
2022-11-05T22:26:20.620Z,6.30
2022-11-05T22:28:47.256Z,6.30
2022-11-05T22:31:17.271Z,6.20
2022-11-05T22:33:43.896Z,6.20
2022-11-05T22:36:10.737Z,6.20
2022-11-05T22:38:37.576Z,6.30
2022-11-05T22:41:08.376Z,6.00
2022-11-05T22:43:35.123Z,6.30
2022-11-05T22:46:09.499Z,6.40
2022-11-05T22:51:04.193Z,6.40
2022-11-05T22:53:31.063Z,6.50
2022-11-05T22:55:58.053Z,6.50
2022-11-05T22:58:24.618Z,6.50
2022-11-05T23:00:51.186Z,6.50
2022-11-05T23:03:17.851Z,6.50
2022-11-05T23:05:44.503Z,6.50
2022-11-05T23:08:29.850Z,6.60
2022-11-05T23:11:28.294Z,6.60
2022-11-05T23:13:55.729Z,6.50
2022-11-05T23:16:41.026Z,6.50
2022-11-05T23:19:27.442Z,6.40
2022-11-05T23:22:12.809Z,6.30
2022-11-05T23:24:39.411Z,6.20
2022-11-05T23:27:06.039Z,6.10
2022-11-05T23:29:32.802Z,6.00
2022-11-05T23:32:18.150Z,6.00
2022-11-05T23:34:44.774Z,5.90
2022-11-05T23:37:30.082Z,5.80
2022-11-05T23:39:56.678Z,5.80
2022-11-05T23:42:41.959Z,5.70
2022-11-05T23:45:27.635Z,5.60
2022-11-05T23:48:12.914Z,5.60
2022-11-05T23:50:40.346Z,5.50
2022-11-05T23:53:07.638Z,5.40
2022-11-05T23:55:34.528Z,5.40
2022-11-05T23:58:01.321Z,5.30
